createdAt,value
2023-05-18T00:03:42.191Z,58.00
2023-05-18T00:06:11.012Z,58.13
2023-05-18T00:08:39.320Z,58.21
2023-05-18T00:11:07.729Z,58.07
2023-05-18T00:13:35.979Z,57.87
2023-05-18T00:16:04.165Z,58.01
2023-05-18T00:18:32.488Z,58.16
2023-05-18T00:21:00.647Z,58.05
2023-05-18T00:23:32.512Z,58.15
2023-05-18T00:26:01.882Z,58.26
2023-05-18T00:28:30.190Z,58.31
2023-05-18T00:30:58.478Z,58.32
2023-05-18T00:33:26.664Z,58.43
2023-05-18T00:35:54.894Z,58.42
2023-05-18T00:38:23.546Z,58.35
2023-05-18T00:40:51.711Z,58.29
2023-05-18T00:43:19.972Z,58.31
2023-05-18T00:45:48.218Z,58.39
2023-05-18T00:48:16.525Z,58.44
2023-05-18T00:50:44.971Z,58.38
2023-05-18T00:53:13.405Z,58.37
2023-05-18T00:55:41.586Z,58.43
2023-05-18T00:58:10.771Z,58.31
2023-05-18T01:00:39.148Z,58.27
2023-05-18T01:03:07.966Z,58.28
2023-05-18T01:05:36.911Z,58.36
2023-05-18T01:08:06.364Z,58.37
2023-05-18T01:10:37.457Z,58.49
2023-05-18T01:13:23.489Z,58.49
2023-05-18T01:15:57.650Z,58.46
2023-05-18T01:18:37.721Z,58.33
2023-05-18T01:21:19.446Z,58.32
2023-05-18T01:23:58.976Z,58.37
2023-05-18T01:26:33.908Z,58.39
2023-05-18T01:29:06.520Z,58.23
2023-05-18T01:31:35.715Z,58.19
2023-05-18T01:34:03.938Z,58.26
2023-05-18T01:36:32.530Z,58.43
2023-05-18T01:39:02.644Z,58.40
2023-05-18T01:41:37.199Z,58.45
2023-05-18T01:44:19.624Z,58.44
2023-05-18T01:46:56.725Z,58.23
2023-05-18T01:49:37.201Z,58.15
2023-05-18T01:52:10.207Z,58.11
2023-05-18T01:54:43.280Z,58.20
2023-05-18T01:57:12.552Z,58.16
2023-05-18T01:59:41.150Z,58.03
2023-05-18T02:02:10.204Z,58.09
2023-05-18T02:04:38.660Z,58.03
2023-05-18T02:07:07.195Z,57.98
2023-05-18T02:09:35.518Z,57.85
2023-05-18T02:12:04.627Z,57.67
2023-05-18T02:14:32.830Z,57.63
2023-05-18T02:17:01.750Z,57.70
2023-05-18T02:19:30.885Z,57.77
2023-05-18T02:21:59.681Z,57.85
2023-05-18T02:24:27.888Z,57.94
2023-05-18T02:26:56.085Z,58.03
2023-05-18T02:29:24.301Z,58.12
2023-05-18T02:31:53.336Z,58.38
2023-05-18T02:34:21.671Z,58.45
2023-05-18T02:36:49.918Z,58.38
2023-05-18T02:39:18.375Z,58.35
2023-05-18T02:41:46.448Z,58.32
2023-05-18T02:44:14.690Z,58.27
2023-05-18T02:46:43.268Z,58.39
2023-05-18T02:49:11.516Z,58.44
2023-05-18T02:51:39.693Z,58.43
2023-05-18T02:54:14.322Z,58.47
2023-05-18T02:56:42.514Z,58.53
2023-05-18T02:59:10.898Z,58.52
2023-05-18T03:01:40.189Z,58.50
2023-05-18T03:04:08.673Z,58.46
2023-05-18T03:06:37.062Z,58.52
2023-05-18T03:09:05.342Z,58.51
2023-05-18T03:11:33.560Z,58.52
2023-05-18T03:14:01.828Z,58.39
2023-05-18T03:16:30.121Z,58.33
2023-05-18T03:18:58.388Z,58.33
2023-05-18T03:21:28.190Z,58.18
2023-05-18T03:23:56.439Z,58.00
2023-05-18T03:26:24.569Z,57.75
2023-05-18T03:28:52.725Z,57.59
2023-05-18T03:31:21.240Z,57.47
2023-05-18T03:33:49.405Z,57.40
2023-05-18T03:36:17.586Z,57.32
2023-05-18T03:38:46.091Z,57.26
2023-05-18T03:41:14.583Z,57.25
2023-05-18T03:43:42.694Z,57.24
2023-05-18T03:46:11.162Z,57.28
2023-05-18T03:48:39.406Z,57.18
2023-05-18T03:51:07.587Z,57.17
2023-05-18T03:53:35.794Z,57.09
2023-05-18T03:56:04.144Z,57.03
2023-05-18T03:58:32.225Z,57.11
2023-05-18T04:01:02.148Z,56.99
2023-05-18T04:03:31.005Z,56.88
2023-05-18T04:05:59.297Z,56.83
2023-05-18T04:08:27.563Z,56.75
2023-05-18T04:10:56.158Z,56.70
2023-05-18T04:13:24.359Z,56.63
2023-05-18T04:15:52.758Z,56.51
2023-05-18T04:18:21.040Z,56.53
2023-05-18T04:20:49.183Z,56.50
2023-05-18T04:23:17.844Z,56.41
2023-05-18T04:25:46.003Z,56.33
2023-05-18T04:28:14.288Z,56.22
2023-05-18T04:30:42.476Z,56.16
2023-05-18T04:33:10.677Z,56.13
2023-05-18T04:35:38.996Z,56.03
2023-05-18T04:38:07.374Z,56.11
2023-05-18T04:40:35.563Z,56.17
2023-05-18T04:43:04.267Z,56.17
2023-05-18T04:45:32.988Z,56.18
2023-05-18T04:48:01.655Z,56.24
2023-05-18T04:50:29.798Z,56.23
2023-05-18T04:52:58.390Z,56.36
2023-05-18T04:55:26.718Z,56.34
2023-05-18T04:57:57.428Z,56.42
2023-05-18T05:00:27.616Z,56.46
2023-05-18T05:02:57.020Z,56.49
2023-05-18T05:05:26.185Z,56.50
2023-05-18T05:07:54.695Z,56.49
2023-05-18T05:10:23.472Z,56.49
2023-05-18T05:12:52.017Z,56.45
2023-05-18T05:15:20.924Z,56.40
2023-05-18T05:17:49.642Z,56.36
2023-05-18T05:20:18.829Z,56.38
2023-05-18T05:22:47.624Z,56.29
2023-05-18T05:25:16.596Z,56.29
2023-05-18T05:27:44.882Z,56.35
2023-05-18T05:30:13.256Z,56.31
2023-05-18T05:32:41.832Z,56.20
2023-05-18T05:35:10.737Z,56.18
2023-05-18T05:37:39.046Z,56.24
2023-05-18T05:40:08.147Z,56.21
2023-05-18T05:42:37.027Z,56.13
2023-05-18T05:45:05.952Z,56.18
2023-05-18T05:47:34.362Z,56.24
2023-05-18T05:50:02.652Z,56.11
2023-05-18T05:52:30.839Z,56.21
2023-05-18T05:54:59.150Z,56.21
2023-05-18T05:57:27.453Z,56.17
2023-05-18T05:59:56.855Z,56.17
2023-05-18T06:02:26.566Z,56.09
2023-05-18T06:04:56.753Z,56.15
2023-05-18T06:07:24.960Z,55.97
2023-05-18T06:09:53.534Z,55.90
2023-05-18T06:12:22.403Z,55.84
2023-05-18T06:14:50.582Z,55.83
2023-05-18T06:17:18.976Z,55.69
2023-05-18T06:19:47.826Z,55.68
2023-05-18T06:22:16.043Z,55.59
2023-05-18T06:24:45.195Z,55.41
2023-05-18T06:27:13.724Z,55.33
2023-05-18T06:29:41.922Z,55.18
2023-05-18T06:32:10.243Z,55.07
2023-05-18T06:34:38.778Z,54.81
2023-05-18T06:37:07.365Z,54.78
2023-05-18T06:39:35.873Z,54.60
2023-05-18T06:42:06.627Z,54.57
2023-05-18T06:44:35.041Z,54.45
2023-05-18T06:47:03.725Z,54.26
2023-05-18T06:49:32.211Z,54.21
2023-05-18T06:52:00.509Z,54.09
2023-05-18T06:54:28.768Z,53.83
2023-05-18T06:56:57.166Z,53.66
2023-05-18T06:59:25.464Z,53.35
2023-05-18T07:01:53.671Z,53.33
2023-05-18T07:04:21.908Z,53.26
2023-05-18T07:06:50.174Z,53.01
2023-05-18T07:09:18.343Z,52.54
2023-05-18T07:11:46.835Z,52.42
2023-05-18T07:14:14.977Z,51.95
2023-05-18T07:16:44.289Z,51.70
2023-05-18T07:19:12.918Z,51.35
2023-05-18T07:21:42.037Z,51.50
2023-05-18T07:24:10.245Z,51.40
2023-05-18T07:26:38.437Z,51.19
2023-05-18T07:29:06.546Z,50.71
2023-05-18T07:31:35.016Z,50.25
2023-05-18T07:34:03.262Z,50.07
2023-05-18T07:36:31.549Z,49.56
2023-05-18T07:38:59.998Z,49.13
2023-05-18T07:41:28.371Z,48.77
2023-05-18T07:43:56.674Z,48.41
2023-05-18T07:46:25.111Z,48.36
2023-05-18T07:48:53.582Z,47.94
2023-05-18T07:51:21.955Z,47.83
2023-05-18T07:53:50.091Z,47.57
2023-05-18T07:56:19.269Z,47.29
2023-05-18T07:58:47.547Z,47.03
2023-05-18T08:01:15.997Z,46.83
2023-05-18T08:03:44.329Z,46.67
2023-05-18T08:06:12.988Z,46.44
2023-05-18T08:08:41.321Z,45.99
2023-05-18T08:11:09.597Z,46.29
2023-05-18T08:13:37.892Z,46.25
2023-05-18T08:16:11.844Z,45.85
2023-05-18T08:18:41.337Z,45.63
2023-05-18T08:21:09.933Z,45.58
2023-05-18T08:23:39.670Z,45.44
2023-05-18T08:26:08.208Z,45.17
2023-05-18T08:28:36.654Z,44.75
2023-05-18T08:31:05.339Z,45.04
2023-05-18T08:33:33.579Z,45.13
2023-05-18T08:36:01.888Z,44.28
2023-05-18T08:38:30.365Z,43.94
2023-05-18T08:41:24.135Z,43.41
2023-05-18T08:43:59.375Z,43.24
2023-05-18T08:46:47.078Z,43.17
2023-05-18T08:49:18.752Z,42.84
2023-05-18T08:51:57.970Z,43.23
2023-05-18T08:54:28.047Z,43.09
2023-05-18T08:56:57.265Z,42.48
2023-05-18T08:59:31.103Z,42.11
2023-05-18T09:01:59.558Z,41.54
2023-05-18T09:04:28.167Z,41.41
2023-05-18T09:06:57.075Z,40.20
2023-05-18T09:09:26.637Z,40.22
2023-05-18T09:11:59.475Z,40.70
2023-05-18T09:14:28.006Z,40.19
2023-05-18T09:16:56.105Z,39.02
2023-05-18T09:19:25.147Z,38.37
2023-05-18T09:21:54.047Z,38.45
2023-05-18T09:24:24.574Z,38.54
2023-05-18T09:26:53.878Z,38.76
2023-05-18T09:29:22.914Z,38.68
2023-05-18T09:31:51.601Z,38.78
2023-05-18T09:34:20.151Z,39.64
2023-05-18T09:36:50.978Z,39.91
2023-05-18T09:39:19.279Z,39.42
2023-05-18T09:41:47.508Z,39.08
2023-05-18T09:44:15.803Z,38.75
2023-05-18T09:46:43.965Z,38.74
2023-05-18T09:49:12.695Z,38.84
2023-05-18T09:51:41.004Z,38.77
2023-05-18T09:54:09.215Z,38.18
2023-05-18T09:56:38.937Z,37.87
2023-05-18T09:59:12.330Z,37.39
2023-05-18T10:01:58.284Z,37.24
2023-05-18T10:04:44.827Z,37.18
2023-05-18T10:07:15.335Z,37.40
2023-05-18T10:09:45.944Z,37.22
2023-05-18T10:12:18.996Z,37.38
2023-05-18T10:14:49.318Z,37.61
2023-05-18T10:17:17.978Z,37.47
2023-05-18T10:19:50.297Z,37.27
2023-05-18T10:22:20.316Z,36.80
2023-05-18T10:24:52.092Z,36.84
2023-05-18T10:27:27.680Z,36.98
2023-05-18T10:29:59.824Z,37.41
2023-05-18T10:32:29.988Z,37.29
2023-05-18T10:35:00.926Z,37.25
2023-05-18T10:37:31.941Z,37.30
2023-05-18T10:40:03.177Z,37.36
2023-05-18T10:42:31.478Z,37.08
2023-05-18T10:45:00.829Z,37.17
2023-05-18T10:47:29.444Z,37.18
2023-05-18T10:49:59.992Z,37.18
2023-05-18T10:52:30.270Z,36.60
2023-05-18T10:55:02.320Z,36.38
2023-05-18T10:57:43.416Z,36.22
2023-05-18T11:00:12.173Z,36.29
2023-05-18T11:02:41.923Z,36.34
2023-05-18T11:05:12.862Z,36.42
2023-05-18T11:07:45.775Z,36.40
2023-05-18T11:10:14.375Z,36.96
2023-05-18T11:12:42.816Z,37.40
2023-05-18T11:15:12.109Z,37.32
2023-05-18T11:17:40.797Z,36.79
2023-05-18T11:20:11.712Z,37.32
2023-05-18T11:22:50.837Z,37.31
2023-05-18T11:25:28.603Z,36.78
2023-05-18T11:28:06.101Z,36.42
2023-05-18T11:30:37.294Z,36.32
2023-05-18T11:33:15.038Z,36.66
2023-05-18T11:36:22.850Z,37.30
2023-05-18T11:38:52.705Z,36.85
2023-05-18T11:41:32.420Z,37.10
2023-05-18T11:44:16.008Z,37.16
2023-05-18T11:46:54.758Z,37.11
2023-05-18T11:49:44.418Z,37.28
2023-05-18T11:52:19.791Z,37.94
2023-05-18T11:54:58.042Z,36.86
2023-05-18T11:57:38.841Z,37.06
2023-05-18T12:00:08.737Z,37.37
2023-05-18T12:02:37.451Z,37.27
2023-05-18T12:05:09.661Z,36.55
2023-05-18T12:07:41.301Z,35.72
2023-05-18T12:10:12.968Z,35.14
2023-05-18T12:12:42.129Z,35.24
2023-05-18T12:15:11.845Z,35.24
2023-05-18T12:18:04.696Z,35.74
2023-05-18T12:20:40.013Z,35.96
2023-05-18T12:23:08.457Z,35.37
2023-05-18T12:25:36.965Z,35.68
2023-05-18T12:28:05.606Z,35.95
2023-05-18T12:30:34.170Z,36.11
2023-05-18T12:33:03.215Z,36.77
2023-05-18T12:35:32.966Z,36.88
2023-05-18T12:38:02.433Z,36.95
2023-05-18T12:40:36.528Z,37.07
2023-05-18T12:43:05.684Z,37.43
2023-05-18T12:45:34.564Z,37.55
2023-05-18T12:48:07.138Z,37.48
2023-05-18T12:50:35.552Z,37.17
2023-05-18T12:53:05.155Z,37.46
2023-05-18T12:55:36.769Z,37.84
2023-05-18T12:58:17.223Z,38.41
2023-05-18T13:00:49.283Z,39.69
2023-05-18T13:03:20.254Z,40.92
2023-05-18T13:06:07.549Z,41.43
2023-05-18T13:08:37.019Z,42.06
2023-05-18T13:11:14.484Z,42.44
2023-05-18T13:14:07.923Z,42.57
2023-05-18T13:16:44.756Z,43.05
2023-05-18T13:19:17.679Z,43.22
2023-05-18T13:21:47.048Z,43.68
2023-05-18T13:24:15.176Z,44.08
2023-05-18T13:26:43.297Z,44.45
2023-05-18T13:29:11.615Z,44.46
2023-05-18T13:31:39.882Z,44.64
2023-05-18T13:34:08.928Z,44.78
2023-05-18T13:36:37.122Z,44.92
2023-05-18T13:39:05.312Z,44.75
2023-05-18T13:41:33.473Z,44.83
2023-05-18T13:44:01.733Z,45.23
2023-05-18T13:46:30.181Z,45.06
2023-05-18T13:48:59.052Z,44.91
2023-05-18T13:51:27.237Z,45.10
2023-05-18T13:53:55.518Z,45.18
2023-05-18T13:56:23.763Z,45.34
2023-05-18T13:58:51.880Z,45.52
2023-05-18T14:01:20.707Z,45.16
2023-05-18T14:03:48.929Z,45.06
2023-05-18T14:06:17.292Z,45.02
2023-05-18T14:08:45.395Z,45.10
2023-05-18T14:11:13.756Z,45.30
2023-05-18T14:13:43.123Z,45.72
2023-05-18T14:16:12.397Z,45.63
2023-05-18T14:18:40.620Z,45.87
2023-05-18T14:21:08.929Z,45.94
2023-05-18T14:23:37.138Z,46.08
2023-05-18T14:26:05.372Z,45.89
2023-05-18T14:28:33.890Z,46.14
2023-05-18T14:31:02.170Z,46.06
2023-05-18T14:33:30.236Z,45.82
2023-05-18T14:35:58.357Z,45.81
2023-05-18T14:38:26.710Z,45.62
2023-05-18T14:40:54.965Z,45.48
2023-05-18T14:43:24.255Z,45.38
2023-05-18T14:46:04.228Z,45.30
2023-05-18T14:48:36.566Z,45.31
2023-05-18T14:51:05.343Z,44.92
2023-05-18T14:53:33.705Z,44.68
2023-05-18T14:56:02.300Z,44.68
2023-05-18T14:58:30.392Z,44.56
2023-05-18T15:00:58.899Z,44.44
2023-05-18T15:03:28.433Z,44.28
2023-05-18T15:05:57.321Z,44.21
2023-05-18T15:08:25.736Z,43.96
2023-05-18T15:10:54.039Z,43.88
2023-05-18T15:13:22.532Z,44.14
2023-05-18T15:15:51.040Z,44.37
2023-05-18T15:18:19.629Z,44.48
2023-05-18T15:20:47.877Z,44.15
2023-05-18T15:23:16.422Z,44.58
2023-05-18T15:25:45.041Z,44.67
2023-05-18T15:28:13.198Z,44.84
2023-05-18T15:30:41.355Z,44.90
2023-05-18T15:33:09.701Z,45.15
2023-05-18T15:35:38.012Z,44.63
2023-05-18T15:38:06.204Z,44.81
2023-05-18T15:40:35.752Z,44.59
2023-05-18T15:43:04.108Z,44.48
2023-05-18T15:45:32.363Z,44.71
2023-05-18T15:48:00.780Z,44.85
2023-05-18T15:50:29.094Z,44.98
2023-05-18T15:52:57.432Z,44.84
2023-05-18T15:55:26.413Z,44.71
2023-05-18T15:57:54.458Z,44.70
2023-05-18T16:00:22.753Z,44.69
2023-05-18T16:02:51.257Z,44.72
2023-05-18T16:05:19.530Z,44.67
2023-05-18T16:07:47.714Z,44.35
2023-05-18T16:10:15.942Z,44.32
2023-05-18T16:12:44.071Z,44.31
2023-05-18T16:15:12.190Z,44.32
2023-05-18T16:17:40.693Z,44.16
2023-05-18T16:20:09.404Z,43.86
2023-05-18T16:22:37.656Z,43.73
2023-05-18T16:25:06.486Z,43.39
2023-05-18T16:27:34.638Z,43.00
2023-05-18T16:30:02.979Z,43.17
2023-05-18T16:32:31.721Z,42.86
2023-05-18T16:34:59.962Z,42.65
2023-05-18T16:37:28.607Z,42.71
2023-05-18T16:39:57.204Z,42.60
2023-05-18T16:42:25.339Z,42.35
2023-05-18T16:44:53.501Z,41.97
2023-05-18T16:47:21.733Z,41.55
2023-05-18T16:49:50.102Z,41.33
2023-05-18T16:52:18.170Z,40.25
2023-05-18T16:54:49.205Z,39.21
2023-05-18T16:57:17.451Z,38.66
2023-05-18T16:59:45.757Z,38.95
2023-05-18T17:02:14.413Z,39.12
2023-05-18T17:04:42.761Z,39.49
2023-05-18T17:07:12.048Z,39.89
2023-05-18T17:09:40.577Z,40.11
2023-05-18T17:12:12.517Z,40.30
2023-05-18T17:14:41.568Z,40.48
2023-05-18T17:17:09.884Z,40.56
2023-05-18T17:19:38.201Z,40.62
2023-05-18T17:22:06.687Z,40.77
2023-05-18T17:24:37.268Z,40.75
2023-05-18T17:27:06.022Z,40.77
2023-05-18T17:29:34.118Z,40.89
2023-05-18T17:32:02.354Z,40.92
2023-05-18T17:34:30.604Z,40.54
2023-05-18T17:36:59.139Z,40.64
2023-05-18T17:39:27.298Z,40.62
2023-05-18T17:41:55.604Z,40.76
2023-05-18T17:44:23.874Z,40.88
2023-05-18T17:46:52.643Z,41.04
2023-05-18T17:49:20.952Z,41.23
2023-05-18T17:51:49.218Z,41.47
2023-05-18T17:54:17.381Z,41.75
2023-05-18T17:56:45.796Z,41.94
2023-05-18T17:59:14.079Z,42.17
2023-05-18T18:01:42.601Z,42.03
2023-05-18T18:04:11.126Z,42.04
2023-05-18T18:06:39.804Z,42.13
2023-05-18T18:09:08.100Z,41.55
2023-05-18T18:11:36.733Z,40.68
2023-05-18T18:14:04.827Z,40.29
2023-05-18T18:16:34.599Z,39.82
2023-05-18T18:19:03.164Z,39.44
2023-05-18T18:21:31.417Z,39.59
2023-05-18T18:23:59.783Z,39.73
2023-05-18T18:26:28.450Z,39.80
2023-05-18T18:28:57.345Z,40.28
2023-05-18T18:31:25.896Z,40.95
2023-05-18T18:33:54.432Z,41.22
2023-05-18T18:36:24.950Z,41.60
2023-05-18T18:38:54.857Z,42.13
2023-05-18T18:41:24.214Z,42.74
2023-05-18T18:43:52.523Z,43.20
2023-05-18T18:46:21.329Z,43.52
2023-05-18T18:48:49.538Z,43.80
2023-05-18T18:51:17.711Z,44.01
2023-05-18T18:53:46.934Z,44.19
2023-05-18T18:56:15.204Z,44.13
2023-05-18T18:58:43.487Z,44.34
2023-05-18T19:01:12.566Z,44.45
2023-05-18T19:03:40.837Z,44.55
2023-05-18T19:06:08.988Z,44.62
2023-05-18T19:08:37.540Z,44.96
2023-05-18T19:11:05.735Z,45.00
2023-05-18T19:13:33.938Z,45.08
2023-05-18T19:16:02.358Z,45.11
2023-05-18T19:18:30.591Z,44.93
2023-05-18T19:20:58.935Z,45.02
2023-05-18T19:23:28.022Z,44.96
2023-05-18T19:25:56.158Z,45.04
2023-05-18T19:28:25.348Z,45.08
2023-05-18T19:30:53.852Z,45.21
2023-05-18T19:33:22.002Z,45.18
2023-05-18T19:35:50.273Z,45.26
2023-05-18T19:38:19.287Z,45.18
2023-05-18T19:40:48.173Z,45.26
2023-05-18T19:43:16.278Z,45.28
2023-05-18T19:45:45.261Z,45.39
2023-05-18T19:48:13.501Z,45.46
2023-05-18T19:50:41.837Z,45.55
2023-05-18T19:53:10.361Z,45.63
2023-05-18T19:55:39.826Z,45.63
2023-05-18T19:58:09.124Z,45.95
2023-05-18T20:00:37.726Z,45.99
2023-05-18T20:03:06.803Z,46.01
2023-05-18T20:05:35.447Z,46.02
2023-05-18T20:08:03.732Z,46.16
2023-05-18T20:10:32.300Z,46.23
2023-05-18T20:13:00.631Z,46.31
2023-05-18T20:15:29.478Z,46.45
2023-05-18T20:17:58.244Z,46.41
2023-05-18T20:20:26.433Z,46.47
2023-05-18T20:22:54.938Z,46.34
2023-05-18T20:25:23.616Z,46.37
2023-05-18T20:27:51.826Z,46.32
2023-05-18T20:30:20.606Z,46.20
2023-05-18T20:32:49.468Z,46.31
2023-05-18T20:35:17.953Z,46.37
2023-05-18T20:37:46.585Z,46.57
2023-05-18T20:40:15.398Z,46.58
2023-05-18T20:42:43.664Z,46.82
2023-05-18T20:45:12.067Z,46.77
2023-05-18T20:47:40.435Z,46.69
2023-05-18T20:50:09.578Z,46.76
2023-05-18T20:52:37.837Z,46.78
2023-05-18T20:55:06.288Z,46.64
2023-05-18T20:57:35.711Z,46.71
2023-05-18T21:00:04.226Z,46.70
2023-05-18T21:02:32.855Z,46.78
2023-05-18T21:05:01.238Z,46.75
2023-05-18T21:07:29.785Z,46.68
2023-05-18T21:09:59.127Z,46.72
2023-05-18T21:12:27.350Z,46.74
2023-05-18T21:14:55.635Z,46.74
2023-05-18T21:17:23.972Z,46.78
2023-05-18T21:19:52.390Z,46.82
2023-05-18T21:22:20.700Z,46.95
2023-05-18T21:24:48.916Z,46.86
2023-05-18T21:27:17.086Z,47.04
2023-05-18T21:29:45.565Z,47.09
2023-05-18T21:32:13.931Z,47.20
2023-05-18T21:34:43.814Z,47.16
2023-05-18T21:37:12.427Z,47.24
2023-05-18T21:39:40.628Z,47.47
2023-05-18T21:42:08.770Z,47.43
2023-05-18T21:44:36.942Z,47.60
2023-05-18T21:47:05.220Z,47.78
2023-05-18T21:49:33.541Z,47.82
2023-05-18T21:52:01.963Z,48.06
2023-05-18T21:54:32.730Z,48.15
2023-05-18T21:57:02.588Z,48.31
2023-05-18T21:59:30.904Z,48.38
2023-05-18T22:01:59.532Z,48.47
2023-05-18T22:04:28.166Z,48.49
2023-05-18T22:06:56.368Z,48.60
2023-05-18T22:09:24.615Z,48.55
2023-05-18T22:11:53.097Z,48.64
2023-05-18T22:14:21.305Z,48.74
2023-05-18T22:16:49.680Z,48.63
2023-05-18T22:19:18.128Z,48.81
2023-05-18T22:21:46.395Z,48.83
2023-05-18T22:24:14.809Z,48.78
2023-05-18T22:26:43.313Z,48.79
2023-05-18T22:29:11.511Z,48.74
2023-05-18T22:31:39.998Z,48.72
2023-05-18T22:34:08.347Z,48.58
2023-05-18T22:36:37.033Z,48.69
2023-05-18T22:39:05.203Z,48.69
2023-05-18T22:41:33.686Z,48.76
2023-05-18T22:44:01.838Z,48.83
2023-05-18T22:46:30.227Z,48.81
2023-05-18T22:48:58.381Z,48.78
2023-05-18T22:51:26.544Z,48.77
2023-05-18T22:53:55.694Z,48.82
2023-05-18T22:56:24.377Z,48.74
2023-05-18T22:58:52.520Z,48.76
2023-05-18T23:01:20.696Z,48.69
2023-05-18T23:03:48.985Z,48.74
2023-05-18T23:06:17.335Z,48.70
2023-05-18T23:08:45.503Z,48.69
2023-05-18T23:11:14.675Z,48.59
2023-05-18T23:13:42.886Z,48.57
2023-05-18T23:16:11.953Z,48.58
2023-05-18T23:18:40.225Z,48.60
2023-05-18T23:21:08.638Z,48.67
2023-05-18T23:23:36.963Z,48.68
2023-05-18T23:26:06.604Z,48.77
2023-05-18T23:28:35.137Z,48.81
2023-05-18T23:31:03.360Z,48.74
2023-05-18T23:33:31.874Z,48.79
2023-05-18T23:36:00.871Z,48.80
2023-05-18T23:38:32.157Z,48.79
2023-05-18T23:41:07.425Z,48.81
2023-05-18T23:43:36.018Z,48.80
2023-05-18T23:46:04.539Z,48.77
2023-05-18T23:48:33.065Z,48.86
2023-05-18T23:51:02.978Z,48.98
2023-05-18T23:53:32.994Z,48.98
2023-05-18T23:56:03.004Z,48.99
2023-05-18T23:58:32.399Z,49.09
